Time;durP1;ratioP1;P1;durP2;ratioP2;P2;SDS_P1;SDS_P2;PMS_P1;PMS_P2;Temp;Humidity;BMP_temperature;BMP_pressure;BME280_temperature;BME280_humidity;BME280_pressure;Samples;Min_cycle;Max_cycle;Signal;HPM_P1;HPM_P2
2022/01/21 00:00:45;;;;;;;6.03;1.23;;;1.60;99.90;;;;;;5075512;28;20187;-79
2022/01/21 00:03:10;;;;;;;7.10;1.57;;;1.60;99.90;;;;;;5073838;28;20577;-80
2022/01/21 00:05:36;;;;;;;6.83;1.50;;;1.60;99.90;;;;;;5074585;28;20647;-79
2022/01/21 00:08:02;;;;;;;6.50;1.30;;;1.70;99.90;;;;;;5050230;28;20212;-79
2022/01/21 00:10:27;;;;;;;7.00;1.53;;;1.60;99.90;;;;;;5037590;28;20267;-79
2022/01/21 00:12:53;;;;;;;6.03;1.93;;;1.60;99.90;;;;;;5036653;28;20184;-79
2022/01/21 00:15:19;;;;;;;6.67;1.67;;;1.60;99.90;;;;;;5035714;28;20638;-79
2022/01/21 00:17:45;;;;;;;7.40;1.40;;;1.70;99.90;;;;;;5036274;28;20241;-79
2022/01/21 00:31:07;;;;;;;7.23;1.57;;;1.70;99.90;;;;;;5073371;28;20584;-79
2022/01/21 00:33:33;;;;;;;9.30;1.90;;;1.70;99.90;;;;;;5073909;28;20176;-80
2022/01/21 00:35:59;;;;;;;12.20;1.30;;;1.70;99.90;;;;;;5073777;28;20168;-79
2022/01/21 00:38:27;;;;;;;5.70;1.80;;;1.70;99.90;;;;;;5062405;28;20199;-79
2022/01/21 00:40:56;;;;;;;3.77;1.10;;;1.70;99.90;;;;;;5035923;28;20318;-79
2022/01/21 00:43:32;;;;;;;14.27;1.50;;;1.60;99.90;;;;;;5053455;28;20165;-79
2022/01/21 00:46:02;;;;;;;4.23;1.57;;;1.60;99.90;;;;;;5052976;28;20167;-79
2022/01/21 00:48:28;;;;;;;6.93;2.17;;;1.60;99.90;;;;;;5053842;28;20204;-80
2022/01/21 00:50:53;;;;;;;5.50;1.50;;;1.60;99.90;;;;;;5054949;28;20193;-79
2022/01/21 00:53:19;;;;;;;11.10;1.77;;;1.50;99.90;;;;;;5055323;28;20175;-79
2022/01/21 00:55:45;;;;;;;18.60;2.83;;;1.50;99.90;;;;;;5074053;28;20643;-79
2022/01/21 00:58:10;;;;;;;8.93;1.50;;;1.40;99.90;;;;;;5055680;28;20176;-80
2022/01/21 01:00:36;;;;;;;7.93;2.00;;;1.40;99.90;;;;;;5056737;28;20184;-80
2022/01/21 01:03:02;;;;;;;7.73;2.17;;;1.30;99.90;;;;;;5056031;28;20180;-80
2022/01/21 01:05:28;;;;;;;9.30;2.17;;;1.30;99.90;;;;;;5048187;28;20185;-80
2022/01/21 01:07:55;;;;;;;7.13;1.70;;;1.30;99.90;;;;;;5054179;28;20231;-80
2022/01/21 01:10:40;;;;;;;11.17;1.90;;;1.20;99.90;;;;;;5035843;28;20193;-79
2022/01/21 01:21:23;;;;;;;9.57;1.97;;;1.10;99.90;;;;;;5074194;28;20186;-80
2022/01/21 01:27:35;;;;;;;7.27;1.50;;;1.10;99.90;;;;;;5056897;28;20172;-80
2022/01/21 01:29:31;;;;;;;8.20;1.63;;;1.20;99.90;;;;;;5055041;28;20277;-80
2022/01/21 01:31:57;;;;;;;9.20;1.70;;;1.30;99.90;;;;;;5054665;28;20200;-80
2022/01/21 01:34:23;;;;;;;17.03;2.23;;;1.30;99.90;;;;;;5036370;28;20190;-79
2022/01/21 01:36:48;;;;;;;12.03;1.97;;;1.40;99.90;;;;;;5038151;28;20186;-79
2022/01/21 01:39:40;;;;;;;10.23;2.43;;;1.40;99.90;;;;;;5037788;28;20201;-79
2022/01/21 01:50:06;;;;;;;10.23;2.10;;;1.50;99.90;;;;;;5074932;28;20211;-79
2022/01/21 01:52:32;;;;;;;18.43;1.80;;;1.50;99.90;;;;;;5077315;28;20168;-82
2022/01/21 01:54:58;;;;;;;15.50;1.87;;;1.40;99.90;;;;;;5047589;28;20207;-79
2022/01/21 01:57:23;;;;;;;6.53;1.40;;;1.40;99.90;;;;;;5056686;28;20177;-79
2022/01/21 01:59:49;;;;;;;14.07;1.97;;;1.40;99.90;;;;;;5038694;28;20588;-79
2022/01/21 02:02:17;;;;;;;8.50;1.93;;;1.30;99.90;;;;;;5057500;28;20662;-79
2022/01/21 02:04:45;;;;;;;11.97;2.00;;;1.30;99.90;;;;;;5039177;28;20177;-79
2022/01/21 02:07:11;;;;;;;6.93;1.50;;;1.30;99.90;;;;;;5057906;28;20277;-79
2022/01/21 02:09:37;;;;;;;11.97;1.80;;;1.30;99.90;;;;;;5058417;28;20207;-79
2022/01/21 02:12:04;;;;;;;10.77;2.00;;;1.30;99.90;;;;;;5077922;28;20165;-79
2022/01/21 02:14:34;;;;;;;12.47;1.60;;;1.30;99.90;;;;;;5059738;28;20230;-80
2022/01/21 02:22:11;;;;;;;9.67;1.90;;;1.30;99.90;;;;;;5077858;28;20214;-80
2022/01/21 02:24:54;;;;;;;9.87;2.03;;;1.40;99.90;;;;;;5059974;28;20202;-79
2022/01/21 02:27:19;;;;;;;12.77;1.73;;;1.30;99.90;;;;;;5059514;28;20257;-79
2022/01/21 02:29:50;;;;;;;7.80;2.33;;;1.40;99.90;;;;;;5077687;28;20616;-79
2022/01/21 02:32:18;;;;;;;14.50;2.50;;;1.50;99.90;;;;;;5077654;28;20192;-79
2022/01/21 02:34:45;;;;;;;10.60;2.03;;;1.50;99.90;;;;;;5062306;28;20191;-79
2022/01/21 02:37:14;;;;;;;7.97;1.47;;;1.50;99.90;;;;;;5077051;28;20172;-79
2022/01/21 02:39:40;;;;;;;9.97;1.80;;;1.50;99.90;;;;;;5059892;28;20572;-79
2022/01/21 02:42:06;;;;;;;11.00;1.67;;;1.40;99.90;;;;;;5060472;28;20644;-79
2022/01/21 02:44:32;;;;;;;12.20;2.53;;;1.40;99.90;;;;;;5077017;28;20209;-79
2022/01/21 02:47:01;;;;;;;14.53;1.93;;;1.40;99.90;;;;;;5075456;28;20201;-79
2022/01/21 02:49:27;;;;;;;9.80;1.90;;;1.30;99.90;;;;;;5040393;28;20204;-79
2022/01/21 02:51:54;;;;;;;11.30;1.83;;;1.20;99.90;;;;;;5040656;28;20663;-79
2022/01/21 02:54:20;;;;;;;12.43;2.10;;;1.10;99.90;;;;;;5060164;28;20165;-79
2022/01/21 02:56:46;;;;;;;9.70;2.70;;;1.10;99.90;;;;;;5041597;28;20275;-79
2022/01/21 02:59:12;;;;;;;12.13;1.83;;;1.10;99.90;;;;;;5063951;22;20221;-81
2022/01/21 03:01:40;;;;;;;11.73;1.47;;;1.10;99.90;;;;;;5054822;28;20228;-81
2022/01/21 03:04:08;;;;;;;19.93;2.10;;;1.20;99.90;;;;;;5053033;28;20714;-81
2022/01/21 03:06:37;;;;;;;9.07;1.90;;;1.20;99.90;;;;;;5052514;28;20333;-81
2022/01/21 03:09:04;;;;;;;15.80;2.30;;;1.20;99.90;;;;;;5053479;28;20536;-81
2022/01/21 03:11:30;;;;;;;13.10;1.63;;;1.30;99.90;;;;;;5053163;28;20177;-81
2022/01/21 03:13:56;;;;;;;13.30;3.10;;;1.30;99.90;;;;;;5054656;28;20176;-81
2022/01/21 03:16:22;;;;;;;6.47;1.53;;;1.30;99.90;;;;;;5053691;28;20569;-81
2022/01/21 03:18:47;;;;;;;12.30;1.80;;;1.30;99.90;;;;;;5052982;28;20177;-81
2022/01/21 03:21:16;;;;;;;8.03;2.03;;;1.30;99.90;;;;;;5052857;28;20172;-81
2022/01/21 03:23:48;;;;;;;17.83;2.27;;;1.30;99.90;;;;;;5053362;28;20186;-81
2022/01/21 03:26:19;;;;;;;14.33;2.27;;;1.30;99.90;;;;;;5052757;28;20207;-81
2022/01/21 03:28:47;;;;;;;13.47;1.87;;;1.30;99.90;;;;;;5053173;28;20171;-81
2022/01/21 03:31:13;;;;;;;7.90;1.87;;;1.30;99.90;;;;;;5052924;28;20512;-81
2022/01/21 03:33:39;;;;;;;17.10;1.90;;;1.20;99.90;;;;;;5053284;28;20172;-81
2022/01/21 03:36:06;;;;;;;14.80;1.80;;;1.20;99.90;;;;;;5052411;28;20557;-81
2022/01/21 03:38:33;;;;;;;11.23;1.70;;;1.10;99.90;;;;;;5052848;28;20173;-81
2022/01/21 03:40:58;;;;;;;8.73;1.70;;;1.10;99.90;;;;;;5053404;28;20168;-82
2022/01/21 03:43:25;;;;;;;11.63;2.07;;;1.10;99.90;;;;;;5052886;28;20261;-81
2022/01/21 03:45:51;;;;;;;11.43;1.63;;;1.10;99.90;;;;;;5052735;28;20685;-81
2022/01/21 03:48:18;;;;;;;14.57;1.60;;;1.10;99.90;;;;;;5053476;28;20199;-81
2022/01/21 03:50:44;;;;;;;7.63;1.83;;;1.20;99.90;;;;;;5052790;28;20177;-81
2022/01/21 03:53:10;;;;;;;14.93;2.30;;;1.20;99.90;;;;;;5054164;28;20220;-81
2022/01/21 03:55:39;;;;;;;13.07;1.93;;;1.20;99.90;;;;;;5052484;28;20186;-81
2022/01/21 03:58:07;;;;;;;9.23;1.63;;;1.30;99.90;;;;;;5052170;28;20595;-81
2022/01/21 04:00:51;;;;;;;11.67;1.40;;;1.30;99.90;;;;;;5052093;28;20191;-81
2022/01/21 04:03:18;;;;;;;16.70;1.90;;;1.30;99.90;;;;;;5052076;28;20258;-81
2022/01/21 04:05:44;;;;;;;7.57;1.50;;;1.30;99.90;;;;;;5052241;28;20200;-81
2022/01/21 04:08:12;;;;;;;7.67;1.87;;;1.40;99.90;;;;;;5052124;28;20196;-81
2022/01/21 04:10:41;;;;;;;4.30;1.30;;;1.40;99.90;;;;;;5052043;28;20172;-81
2022/01/21 04:13:14;;;;;;;8.00;1.67;;;1.40;99.90;;;;;;5051834;28;20180;-81
2022/01/21 04:15:41;;;;;;;13.27;1.90;;;1.40;99.90;;;;;;5058020;28;20200;-80
2022/01/21 04:18:07;;;;;;;8.23;1.80;;;1.40;99.90;;;;;;5058481;28;20180;-79
2022/01/21 04:20:33;;;;;;;10.87;1.70;;;1.40;99.90;;;;;;5059667;28;20192;-79
2022/01/21 04:22:58;;;;;;;5.83;1.37;;;1.40;99.90;;;;;;5060334;28;20177;-80
2022/01/21 04:25:24;;;;;;;14.17;1.80;;;1.50;99.90;;;;;;5059510;28;20220;-80
2022/01/21 04:27:51;;;;;;;5.03;1.47;;;1.50;99.90;;;;;;5059453;28;20212;-80
2022/01/21 04:30:16;;;;;;;5.30;1.60;;;1.50;99.90;;;;;;5059988;28;20176;-80
2022/01/21 04:32:42;;;;;;;12.87;1.77;;;1.60;99.90;;;;;;5058532;28;20587;-80
2022/01/21 04:35:08;;;;;;;8.83;1.60;;;1.60;99.90;;;;;;5058534;28;20204;-80
2022/01/21 04:37:36;;;;;;;9.77;1.43;;;1.60;99.90;;;;;;5058320;28;20237;-79
2022/01/21 04:40:10;;;;;;;18.07;1.60;;;1.70;99.90;;;;;;5058876;28;20218;-80
2022/01/21 04:48:06;;;;;;;5.83;1.87;;;1.70;99.90;;;;;;5059791;28;20204;-80
2022/01/21 04:50:40;;;;;;;11.20;2.03;;;1.70;99.90;;;;;;5057883;28;20176;-80
2022/01/21 04:53:06;;;;;;;4.93;1.30;;;1.70;99.90;;;;;;5057899;28;20196;-80
2022/01/21 04:55:33;;;;;;;7.93;1.23;;;1.70;99.90;;;;;;5058191;28;20238;-80
2022/01/21 04:57:58;;;;;;;5.50;1.40;;;1.70;99.90;;;;;;5057862;28;20173;-80
2022/01/21 05:00:24;;;;;;;7.70;1.30;;;1.70;99.90;;;;;;5057141;28;20200;-80
2022/01/21 05:02:50;;;;;;;11.13;1.73;;;1.70;99.90;;;;;;5058223;28;20365;-80
2022/01/21 05:05:15;;;;;;;10.27;1.90;;;1.60;99.90;;;;;;5057013;28;20236;-80
2022/01/21 05:07:42;;;;;;;6.03;1.40;;;1.60;99.90;;;;;;5058023;28;20245;-80
2022/01/21 05:10:08;;;;;;;18.30;1.97;;;1.60;99.90;;;;;;5057867;28;20170;-80
2022/01/21 05:12:34;;;;;;;11.07;1.47;;;1.50;99.90;;;;;;5058325;28;20588;-80
2022/01/21 05:17:28;;;;;;;4.40;1.20;;;1.60;99.90;;;;;;5059854;28;20184;-80
2022/01/21 05:19:54;;;;;;;10.40;1.77;;;1.60;99.90;;;;;;5057728;28;20187;-80
2022/01/21 05:22:19;;;;;;;6.70;1.50;;;1.50;99.90;;;;;;5058390;28;20184;-80
2022/01/21 05:24:45;;;;;;;7.10;1.53;;;1.50;99.90;;;;;;5057154;28;20267;-80
2022/01/21 05:27:12;;;;;;;6.43;1.27;;;1.40;99.90;;;;;;5061823;28;20203;-80
2022/01/21 05:29:39;;;;;;;5.10;1.80;;;1.40;99.90;;;;;;5061142;28;20260;-80
2022/01/21 05:32:06;;;;;;;8.03;1.40;;;1.40;99.90;;;;;;5061547;28;20169;-80
2022/01/21 05:34:32;;;;;;;6.13;1.30;;;1.40;99.90;;;;;;5062423;28;20196;-80
2022/01/21 05:36:58;;;;;;;11.77;1.23;;;1.40;99.90;;;;;;5061581;28;20177;-80
2022/01/21 05:39:23;;;;;;;11.40;1.60;;;1.40;99.90;;;;;;5061543;28;20184;-80
2022/01/21 05:41:51;;;;;;;10.17;1.50;;;1.50;99.90;;;;;;5061345;28;20184;-80
2022/01/21 05:47:08;;;;;;;4.50;1.30;;;1.50;99.90;;;;;;5041602;28;20216;-80
2022/01/21 05:49:35;;;;;;;11.27;2.10;;;1.50;99.90;;;;;;5061049;28;20624;-80
2022/01/21 05:52:09;;;;;;;6.27;1.70;;;1.50;99.90;;;;;;5061582;28;20266;-80
2022/01/21 05:54:35;;;;;;;5.53;1.20;;;1.50;99.90;;;;;;5060740;28;20196;-81
2022/01/21 05:57:05;;;;;;;9.70;1.83;;;1.60;99.90;;;;;;5060301;28;20183;-80
2022/01/21 05:59:31;;;;;;;9.50;1.30;;;1.60;99.90;;;;;;5060754;28;20287;-80
2022/01/21 06:01:56;;;;;;;13.97;1.70;;;1.60;99.90;;;;;;5060173;28;20204;-80
2022/01/21 06:04:22;;;;;;;7.03;1.30;;;1.70;99.90;;;;;;5060356;28;20181;-80
2022/01/21 06:06:48;;;;;;;2.90;1.23;;;1.70;99.90;;;;;;5060590;28;20277;-80
2022/01/21 06:09:14;;;;;;;5.17;1.50;;;1.70;99.90;;;;;;5060045;28;20272;-80
2022/01/21 06:11:39;;;;;;;9.13;1.93;;;1.70;99.90;;;;;;5059712;28;20234;-80
2022/01/21 06:14:05;;;;;;;7.77;1.30;;;1.80;99.90;;;;;;5058811;28;20173;-81
2022/01/21 06:16:34;;;;;;;5.40;1.37;;;1.70;99.90;;;;;;5054483;28;20243;-81
2022/01/21 06:19:00;;;;;;;5.30;1.30;;;1.70;99.90;;;;;;5054321;28;20278;-81
2022/01/21 06:21:26;;;;;;;9.73;1.47;;;1.70;99.90;;;;;;5054283;28;20180;-81
2022/01/21 06:23:51;;;;;;;4.80;1.40;;;1.70;99.90;;;;;;5054366;28;20209;-81
2022/01/21 06:26:17;;;;;;;8.43;1.63;;;1.80;99.90;;;;;;5054269;28;20197;-82
2022/01/21 06:28:43;;;;;;;9.70;1.57;;;1.80;99.90;;;;;;5054204;28;20173;-81
2022/01/21 06:31:08;;;;;;;4.93;1.23;;;1.80;99.90;;;;;;5053931;28;20260;-81
2022/01/21 06:33:34;;;;;;;4.03;0.97;;;1.90;99.90;;;;;;5055375;28;20172;-82
2022/01/21 06:36:00;;;;;;;4.50;0.83;;;1.90;99.90;;;;;;5057036;28;20560;-81
2022/01/21 06:38:27;;;;;;;7.27;1.50;;;1.90;99.90;;;;;;5060099;28;20180;-80
2022/01/21 06:40:54;;;;;;;6.47;1.20;;;1.90;99.90;;;;;;5061502;28;20569;-81
2022/01/21 06:43:19;;;;;;;9.73;1.50;;;1.90;99.90;;;;;;5059622;28;20664;-81
2022/01/21 06:45:45;;;;;;;6.03;1.00;;;1.80;99.90;;;;;;5058357;28;20208;-78
2022/01/21 06:48:11;;;;;;;8.37;1.60;;;1.80;99.90;;;;;;5058986;28;20211;-80
2022/01/21 06:50:40;;;;;;;7.60;1.30;;;1.80;99.90;;;;;;5057599;28;20621;-81
2022/01/21 06:53:06;;;;;;;5.37;0.77;;;1.80;99.90;;;;;;5056329;28;20185;-81
2022/01/21 06:55:32;;;;;;;8.73;1.30;;;1.80;99.90;;;;;;5054273;28;20204;-82
2022/01/21 06:57:58;;;;;;;7.37;1.00;;;1.80;99.90;;;;;;5057154;28;20170;-81
2022/01/21 07:00:24;;;;;;;7.97;1.33;;;1.70;99.90;;;;;;5054124;28;20211;-81
2022/01/21 07:02:52;;;;;;;2.73;1.30;;;1.70;99.90;;;;;;5054024;28;20212;-82
2022/01/21 07:05:19;;;;;;;6.90;1.40;;;1.60;99.90;;;;;;5054293;28;20223;-82
2022/01/21 07:07:45;;;;;;;5.67;1.00;;;1.60;99.90;;;;;;5053527;28;20616;-81
2022/01/21 07:10:14;;;;;;;6.40;1.73;;;1.50;99.90;;;;;;5053273;28;20171;-81
2022/01/21 07:12:41;;;;;;;7.80;1.77;;;1.50;99.90;;;;;;5053614;28;20219;-82
2022/01/21 07:15:08;;;;;;;6.33;1.53;;;1.40;99.90;;;;;;5054765;28;20617;-80
2022/01/21 07:17:34;;;;;;;6.30;1.20;;;1.50;99.90;;;;;;5054077;28;20172;-80
2022/01/21 07:20:00;;;;;;;7.60;1.40;;;1.50;99.90;;;;;;5052784;28;20189;-80
2022/01/21 07:22:26;;;;;;;4.27;1.60;;;1.60;99.90;;;;;;5052624;28;20216;-80
2022/01/21 07:24:52;;;;;;;9.90;1.97;;;1.60;99.90;;;;;;5053968;28;20294;-79
2022/01/21 07:27:18;;;;;;;6.93;1.47;;;1.60;99.90;;;;;;5053825;28;20280;-80
2022/01/21 07:29:43;;;;;;;11.17;1.80;;;1.60;99.90;;;;;;5053656;28;20176;-80
2022/01/21 07:32:09;;;;;;;8.70;1.30;;;1.70;99.90;;;;;;5052540;28;20180;-80
2022/01/21 07:34:35;;;;;;;3.77;1.40;;;1.70;99.90;;;;;;5052201;28;20176;-81
2022/01/21 07:37:01;;;;;;;5.03;1.53;;;1.80;99.90;;;;;;5052284;28;20173;-80
2022/01/21 07:39:27;;;;;;;7.90;1.40;;;1.80;99.90;;;;;;5053440;28;20204;-80
2022/01/21 07:41:52;;;;;;;7.80;1.60;;;1.70;99.90;;;;;;5052017;28;20188;-81
2022/01/21 07:44:18;;;;;;;8.50;1.53;;;1.60;99.90;;;;;;5052084;28;20625;-81
2022/01/21 07:46:45;;;;;;;8.57;1.50;;;1.70;99.90;;;;;;5051570;28;20200;-81
2022/01/21 07:49:11;;;;;;;7.33;1.40;;;1.70;99.90;;;;;;5050492;28;20180;-80
2022/01/21 07:51:38;;;;;;;6.27;1.27;;;1.70;99.90;;;;;;5051368;28;20212;-81
2022/01/21 07:54:05;;;;;;;7.23;1.47;;;1.70;99.90;;;;;;5052970;28;20177;-81
2022/01/21 07:56:33;;;;;;;8.00;1.30;;;1.70;99.90;;;;;;5051653;28;20214;-81
2022/01/21 07:59:00;;;;;;;11.07;1.80;;;1.70;99.90;;;;;;5053173;28;20189;-81
2022/01/21 08:01:26;;;;;;;5.33;1.30;;;1.70;99.90;;;;;;5051515;28;20218;-81
2022/01/21 08:03:53;;;;;;;8.07;1.70;;;1.80;99.90;;;;;;5051828;28;20183;-80
2022/01/21 08:06:18;;;;;;;15.93;1.80;;;1.80;99.90;;;;;;5051560;28;20250;-80
2022/01/21 08:08:44;;;;;;;7.83;1.40;;;1.80;99.90;;;;;;5051674;28;20181;-81
2022/01/21 08:11:10;;;;;;;5.03;1.17;;;1.90;99.90;;;;;;5051443;28;20176;-81
2022/01/21 08:13:35;;;;;;;5.10;1.57;;;1.90;99.90;;;;;;5051543;28;20266;-81
2022/01/21 08:16:01;;;;;;;8.50;1.43;;;1.90;99.90;;;;;;5050619;28;20673;-81
2022/01/21 08:18:27;;;;;;;14.37;1.83;;;1.90;99.90;;;;;;5048443;28;20672;-81
2022/01/21 08:20:53;;;;;;;9.03;2.23;;;1.90;99.90;;;;;;5051829;28;20551;-81
2022/01/21 08:23:19;;;;;;;3.73;1.37;;;2.00;99.90;;;;;;5050672;28;20169;-81
2022/01/21 08:25:45;;;;;;;8.33;1.50;;;2.20;99.90;;;;;;5049429;28;20552;-81
2022/01/21 08:28:11;;;;;;;4.40;1.37;;;2.30;99.90;;;;;;5049375;28;20197;-81
2022/01/21 08:30:38;;;;;;;6.53;1.50;;;2.40;99.90;;;;;;5050022;28;20264;-81
2022/01/21 08:33:04;;;;;;;6.17;1.30;;;2.50;99.90;;;;;;5049426;28;20162;-81
2022/01/21 08:35:31;;;;;;;5.33;1.37;;;2.60;99.90;;;;;;5050614;28;20702;-81
2022/01/21 08:37:56;;;;;;;4.00;1.27;;;2.60;99.90;;;;;;5050528;28;20527;-81
2022/01/21 08:40:23;;;;;;;13.67;1.83;;;2.60;99.90;;;;;;5051584;28;20177;-81
2022/01/21 08:42:49;;;;;;;9.90;1.50;;;2.50;99.90;;;;;;5050381;28;20279;-81
2022/01/21 08:45:15;;;;;;;4.83;1.37;;;2.50;99.90;;;;;;5049675;28;20316;-80
2022/01/21 08:47:42;;;;;;;8.00;1.33;;;2.40;99.90;;;;;;5050027;28;20193;-80
2022/01/21 08:50:11;;;;;;;6.43;1.27;;;2.40;99.90;;;;;;5055818;28;20256;-79
2022/01/21 08:52:38;;;;;;;7.83;1.40;;;2.50;99.90;;;;;;5054936;28;20264;-80
2022/01/21 08:55:05;;;;;;;7.83;1.57;;;2.50;99.90;;;;;;5054830;28;20266;-80
2022/01/21 08:57:32;;;;;;;7.00;1.50;;;2.50;99.90;;;;;;5054910;28;20208;-80
2022/01/21 08:59:59;;;;;;;9.20;2.03;;;2.50;99.90;;;;;;5056488;28;20192;-80
2022/01/21 09:02:24;;;;;;;7.07;1.77;;;2.60;99.90;;;;;;5058508;28;20199;-80
2022/01/21 09:04:50;;;;;;;3.90;1.40;;;2.70;99.90;;;;;;5058779;28;20204;-80
2022/01/21 09:07:16;;;;;;;5.87;1.33;;;2.80;99.90;;;;;;5059621;28;20288;-80
2022/01/21 09:09:41;;;;;;;11.63;1.53;;;2.90;99.90;;;;;;5054321;28;20177;-80
2022/01/21 09:12:07;;;;;;;5.43;1.13;;;3.20;99.90;;;;;;5056268;28;20180;-80
2022/01/21 09:14:33;;;;;;;4.73;1.30;;;3.20;99.90;;;;;;5053862;28;20181;-81
2022/01/21 09:16:59;;;;;;;7.17;1.23;;;3.10;99.90;;;;;;5054783;28;20189;-80
2022/01/21 09:19:25;;;;;;;9.73;1.40;;;3.10;99.90;;;;;;5054513;28;20191;-80
2022/01/21 09:21:52;;;;;;;7.27;1.20;;;3.10;99.90;;;;;;5054250;28;20173;-80
2022/01/21 09:24:19;;;;;;;7.00;1.40;;;3.20;99.90;;;;;;5056606;28;20181;-80
2022/01/21 09:26:45;;;;;;;5.70;1.70;;;3.40;99.90;;;;;;5054488;28;20201;-80
2022/01/21 09:29:11;;;;;;;10.13;1.77;;;3.40;99.90;;;;;;5054723;28;20624;-80
2022/01/21 09:31:38;;;;;;;6.90;1.60;;;3.60;99.90;;;;;;5054601;28;20181;-80
2022/01/21 09:34:05;;;;;;;5.23;1.30;;;3.70;99.90;;;;;;5055259;28;20179;-79
2022/01/21 09:36:32;;;;;;;8.37;1.57;;;4.00;99.90;;;;;;5055301;28;20673;-80
2022/01/21 09:38:58;;;;;;;9.00;1.43;;;3.90;99.90;;;;;;5057278;28;20181;-79
2022/01/21 09:41:24;;;;;;;6.80;1.33;;;3.90;99.90;;;;;;5056283;28;20177;-79
2022/01/21 09:43:53;;;;;;;7.00;1.20;;;3.80;99.90;;;;;;5056294;28;20688;-79
2022/01/21 09:46:26;;;;;;;10.27;1.50;;;3.90;99.90;;;;;;5056221;28;20737;-79
2022/01/21 09:49:04;;;;;;;13.90;1.73;;;3.90;99.90;;;;;;5056246;28;20278;-79
2022/01/21 09:51:30;;;;;;;6.73;1.73;;;3.80;99.90;;;;;;5056263;28;20177;-79
2022/01/21 09:54:01;;;;;;;7.10;1.63;;;3.80;99.90;;;;;;5057351;28;20180;-79
2022/01/21 09:56:27;;;;;;;7.77;1.40;;;4.00;99.90;;;;;;5056855;28;20197;-79
2022/01/21 09:58:54;;;;;;;8.33;1.53;;;4.40;99.90;;;;;;5055856;28;20283;-79
2022/01/21 10:01:20;;;;;;;6.80;1.37;;;4.70;99.90;;;;;;5056745;28;20622;-79
2022/01/21 10:03:47;;;;;;;5.97;1.87;;;5.20;99.90;;;;;;5056621;28;20180;-79
2022/01/21 10:06:13;;;;;;;6.37;1.50;;;5.50;99.90;;;;;;5055671;28;20227;-79
2022/01/21 10:08:41;;;;;;;10.70;1.63;;;5.70;99.90;;;;;;5056525;28;20625;-79
2022/01/21 10:11:08;;;;;;;5.30;1.77;;;5.90;99.90;;;;;;5055158;28;20528;-80
2022/01/21 10:13:35;;;;;;;10.37;2.07;;;6.10;99.90;;;;;;5055365;28;20174;-80
2022/01/21 10:16:03;;;;;;;5.27;1.87;;;6.60;99.90;;;;;;5056338;28;20213;-80
2022/01/21 10:18:29;;;;;;;10.43;1.77;;;6.80;99.90;;;;;;5055546;28;20269;-80
2022/01/21 10:20:59;;;;;;;8.17;1.90;;;6.90;99.90;;;;;;5055306;28;20203;-80
2022/01/21 10:23:28;;;;;;;11.63;2.00;;;6.50;99.90;;;;;;5055073;28;20179;-80
2022/01/21 10:26:06;;;;;;;12.20;1.83;;;6.00;99.90;;;;;;5055012;28;20303;-81
2022/01/21 10:28:33;;;;;;;9.33;1.60;;;6.00;99.90;;;;;;5054727;28;20571;-81
2022/01/21 10:31:16;;;;;;;7.17;1.70;;;6.20;99.90;;;;;;5055209;28;20634;-81
2022/01/21 10:33:45;;;;;;;9.97;1.67;;;6.20;99.90;;;;;;5054732;28;20186;-81
2022/01/21 10:36:15;;;;;;;7.40;1.50;;;6.00;99.90;;;;;;5054233;28;20292;-81
2022/01/21 10:38:46;;;;;;;11.93;1.93;;;5.80;99.90;;;;;;5054448;28;20170;-81
2022/01/21 10:41:15;;;;;;;7.70;1.60;;;5.80;99.90;;;;;;5054238;28;20175;-81
2022/01/21 10:43:41;;;;;;;5.90;1.53;;;5.80;99.90;;;;;;5054841;28;20177;-81
2022/01/21 10:46:07;;;;;;;9.37;1.70;;;5.70;99.90;;;;;;5054002;28;20201;-81
2022/01/21 10:49:11;;;;;;;9.33;1.50;;;5.80;99.90;;;;;;5054151;28;20213;-79
2022/01/21 10:51:39;;;;;;;4.73;1.43;;;5.80;99.90;;;;;;5054518;28;20653;-80
2022/01/21 10:54:26;;;;;;;14.17;2.10;;;5.90;99.90;;;;;;5054882;28;20541;-80
2022/01/21 10:57:13;;;;;;;9.93;1.77;;;6.00;99.90;;;;;;5054664;28;20240;-80
2022/01/21 11:00:03;;;;;;;10.67;1.63;;;5.80;99.90;;;;;;5054222;28;20213;-80
2022/01/21 11:02:30;;;;;;;27.47;2.23;;;5.90;99.90;;;;;;5054671;28;20610;-80
2022/01/21 11:04:59;;;;;;;6.83;1.73;;;5.90;99.90;;;;;;5054640;28;20195;-80
2022/01/21 11:08:09;;;;;;;10.30;1.57;;;5.80;99.90;;;;;;5034425;28;20218;-81
2022/01/21 11:10:35;;;;;;;9.03;2.10;;;5.70;99.90;;;;;;5033947;28;20174;-80
2022/01/21 11:13:25;;;;;;;9.10;1.73;;;5.60;99.90;;;;;;5038745;28;20273;-80
2022/01/21 11:15:57;;;;;;;6.50;1.93;;;5.70;99.90;;;;;;5048609;28;20233;-80
2022/01/21 11:18:25;;;;;;;7.83;1.70;;;5.70;99.90;;;;;;5054401;28;20204;-80
2022/01/21 11:20:57;;;;;;;7.47;2.50;;;5.60;99.90;;;;;;5054610;28;20203;-80
2022/01/21 11:23:26;;;;;;;7.60;1.90;;;5.70;99.90;;;;;;5054139;28;20172;-80
2022/01/21 11:25:56;;;;;;;11.33;1.57;;;5.70;99.90;;;;;;5053621;28;20207;-80
2022/01/21 11:28:26;;;;;;;13.53;2.53;;;5.80;99.90;;;;;;5054388;28;20200;-80
2022/01/21 11:30:54;;;;;;;12.33;2.30;;;5.90;99.90;;;;;;5054121;28;20170;-80
2022/01/21 11:33:21;;;;;;;7.03;1.97;;;6.20;99.90;;;;;;5054003;28;20585;-80
2022/01/21 11:35:52;;;;;;;5.17;1.77;;;6.30;99.90;;;;;;5054603;28;20197;-80
2022/01/21 11:38:19;;;;;;;10.77;2.10;;;6.30;99.90;;;;;;5053739;28;20722;-80
2022/01/21 11:40:47;;;;;;;10.00;1.83;;;6.10;99.90;;;;;;5053930;28;20176;-80
2022/01/21 11:43:14;;;;;;;10.37;1.90;;;6.00;99.90;;;;;;5053068;28;20652;-79
2022/01/21 11:46:05;;;;;;;10.17;1.60;;;6.00;99.90;;;;;;5052663;28;20207;-80
2022/01/21 11:51:35;;;;;;;13.73;2.10;;;6.00;99.90;;;;;;5054950;28;20167;-80
2022/01/21 11:54:05;;;;;;;8.10;1.63;;;6.00;99.90;;;;;;5044783;28;20276;-79
2022/01/21 11:56:43;;;;;;;11.33;2.70;;;5.90;99.90;;;;;;5052084;28;20196;-79
2022/01/21 12:02:15;;;;;;;16.77;2.30;;;5.90;99.90;;;;;;5031249;28;20646;-79
2022/01/21 12:04:46;;;;;;;13.57;1.77;;;5.90;99.90;;;;;;5052673;28;20189;-80
2022/01/21 12:07:36;;;;;;;11.27;2.23;;;5.90;99.90;;;;;;5052481;28;20201;-79
2022/01/21 12:10:02;;;;;;;11.63;1.67;;;5.90;99.90;;;;;;5047858;28;20635;-80
2022/01/21 12:12:47;;;;;;;12.20;2.40;;;5.80;99.90;;;;;;5052686;28;20184;-80
2022/01/21 12:18:37;;;;;;;13.70;1.87;;;5.80;99.90;;;;;;5054485;28;20177;-79
2022/01/21 12:21:22;;;;;;;15.27;2.13;;;5.80;99.90;;;;;;5020726;28;20184;-80
2022/01/21 12:23:48;;;;;;;15.43;2.00;;;5.80;99.90;;;;;;5052826;28;20173;-79
2022/01/21 12:26:18;;;;;;;13.70;2.20;;;5.90;99.90;;;;;;5052837;28;20195;-79
2022/01/21 12:28:53;;;;;;;9.30;1.97;;;5.90;99.90;;;;;;5052359;28;20181;-79
2022/01/21 12:31:49;;;;;;;14.27;2.13;;;5.80;99.90;;;;;;5052007;28;20218;-79
2022/01/21 12:34:16;;;;;;;12.30;1.87;;;5.80;99.90;;;;;;5051782;28;20168;-79
2022/01/21 12:36:50;;;;;;;9.20;1.90;;;5.80;99.90;;;;;;5052608;28;20224;-81
2022/01/21 12:39:41;;;;;;;10.37;2.40;;;5.90;99.90;;;;;;5032753;28;20216;-80
2022/01/21 12:42:27;;;;;;;11.97;1.70;;;5.80;99.90;;;;;;5031804;28;20229;-82
2022/01/21 12:45:08;;;;;;;10.30;1.87;;;5.80;99.90;;;;;;5031638;28;20248;-81
2022/01/21 12:47:40;;;;;;;6.57;1.67;;;5.80;99.90;;;;;;5042870;28;20208;-81
2022/01/21 12:50:32;;;;;;;8.37;1.57;;;5.60;99.90;;;;;;5051659;28;20166;-82
2022/01/21 12:58:22;;;;;;;11.10;1.60;;;5.60;99.90;;;;;;5053010;28;20181;-81
2022/01/21 13:00:54;;;;;;;4.93;1.67;;;5.60;99.90;;;;;;5051665;28;20194;-81
2022/01/21 13:03:42;;;;;;;4.80;1.63;;;5.40;99.90;;;;;;5051165;28;20163;-83
2022/01/21 13:06:15;;;;;;;6.80;1.90;;;5.40;99.90;;;;;;5051882;28;20563;-82
2022/01/21 13:08:59;;;;;;;9.40;1.40;;;5.50;99.90;;;;;;5051967;28;20210;-82
2022/01/21 13:11:25;;;;;;;5.50;1.60;;;5.40;99.90;;;;;;5051541;28;20168;-82
2022/01/21 13:14:34;;;;;;;4.10;1.33;;;5.30;99.90;;;;;;5051983;28;20180;-81
2022/01/21 13:17:11;;;;;;;7.93;1.37;;;5.40;99.90;;;;;;5051695;28;20167;-81
2022/01/21 13:19:55;;;;;;;4.67;1.07;;;5.30;99.90;;;;;;5048241;28;20805;-81
2022/01/21 13:22:27;;;;;;;5.60;1.20;;;5.20;99.90;;;;;;5051209;28;20191;-81
2022/01/21 13:25:01;;;;;;;1.97;1.10;;;5.20;99.90;;;;;;5050510;28;20197;-81
2022/01/21 13:27:28;;;;;;;9.30;1.30;;;5.20;99.90;;;;;;5050262;28;20275;-81
2022/01/21 13:30:18;;;;;;;4.77;1.00;;;5.20;99.90;;;;;;5050424;28;20173;-81
2022/01/21 13:32:45;;;;;;;3.03;1.10;;;5.00;99.90;;;;;;5052445;28;20265;-81
2022/01/21 13:35:14;;;;;;;3.43;1.30;;;5.10;99.90;;;;;;5050434;28;20208;-81
2022/01/21 13:37:42;;;;;;;6.50;1.30;;;5.20;99.90;;;;;;5051218;28;20187;-81
2022/01/21 13:40:09;;;;;;;5.13;1.40;;;5.00;99.90;;;;;;5050146;28;20182;-81
2022/01/21 13:42:36;;;;;;;8.87;1.70;;;5.00;99.90;;;;;;5051312;28;20551;-81
2022/01/21 13:45:08;;;;;;;5.23;1.87;;;5.00;99.90;;;;;;5050974;28;20250;-80
2022/01/21 13:47:37;;;;;;;5.37;1.73;;;5.10;99.90;;;;;;5054229;28;20743;-80
2022/01/21 13:50:24;;;;;;;7.93;1.63;;;5.10;99.90;;;;;;5054606;28;20200;-80
2022/01/21 13:53:00;;;;;;;5.27;1.77;;;5.10;99.90;;;;;;5053964;28;20178;-80
2022/01/21 13:55:41;;;;;;;4.60;1.70;;;5.10;99.90;;;;;;5054932;28;20195;-80
2022/01/21 13:58:13;;;;;;;6.60;1.90;;;5.10;99.90;;;;;;5054720;28;20263;-80
2022/01/21 14:01:01;;;;;;;7.07;1.83;;;5.10;99.90;;;;;;5055437;28;20212;-81
2022/01/21 14:03:30;;;;;;;6.47;1.70;;;5.10;99.90;;;;;;5054022;28;20189;-81